Time;durP1;ratioP1;P1;durP2;ratioP2;P2;SDS_P1;SDS_P2;PMS_P1;PMS_P2;Temp;Humidity;BMP_temperature;BMP_pressure;BME280_temperature;BME280_humidity;BME280_pressure;Samples;Min_cycle;Max_cycle;Signal;HPM_P1;HPM_P2
2022/01/12 00:00:27;;;;;;;;;;;;;;;6.00;32.68;100576.13;4482510;32;33458;-87
2022/01/12 00:02:55;;;;;;;;;;;;;;;5.63;33.00;100575.78;4483042;32;34418;-88
2022/01/12 00:05:22;;;;;;;;;;;;;;;5.35;33.51;100574.25;4478791;32;35136;-91
2022/01/12 00:07:51;;;;;;;;;;;;;;;5.83;32.74;100577.78;4482387;32;33329;-92
2022/01/12 00:10:18;;;;;;;;;;;;;;;5.94;32.48;100574.91;4482254;32;35157;-92
2022/01/12 00:12:45;;;;;;;;;;;;;;;6.16;32.17;100570.09;4481598;32;34411;-93
2022/01/12 00:15:13;;;;;;;;;;;;;;;5.57;32.93;100573.78;4480505;32;34430;-91
2022/01/12 00:17:41;;;;;;;;;;;;;;;5.93;32.41;100571.44;4482312;32;33637;-92
2022/01/12 00:20:09;;;;;;;;;;;;;;;6.06;31.68;100571.31;4481896;32;33962;-87
2022/01/12 00:22:38;;;;;;;;;;;;;;;5.50;32.52;100570.78;4472457;32;33971;-92
2022/01/12 00:25:31;;;;;;;;;;;;;;;5.85;32.44;100573.56;4481582;32;34200;-86
2022/01/12 00:33:46;;;;;;;;;;;;;;;6.01;32.11;100584.72;4455470;31;34253;-90
2022/01/12 00:36:15;;;;;;;;;;;;;;;6.24;31.80;100578.22;4480995;32;34310;-92
2022/01/12 00:38:43;;;;;;;;;;;;;;;6.28;31.80;100586.19;4482025;32;34088;-92
2022/01/12 00:41:11;;;;;;;;;;;;;;;5.89;32.43;100590.06;4480754;32;33898;-92
2022/01/12 00:43:44;;;;;;;;;;;;;;;6.16;32.02;100593.28;4480350;32;34316;-91
2022/01/12 00:46:12;;;;;;;;;;;;;;;5.98;32.32;100600.00;4481309;32;34960;-91
2022/01/12 00:48:40;;;;;;;;;;;;;;;6.01;32.30;100598.47;4481326;32;34618;-92
2022/01/12 00:51:10;;;;;;;;;;;;;;;5.71;33.04;100599.34;4479568;32;34282;-93
2022/01/12 00:53:38;;;;;;;;;;;;;;;5.77;32.51;100599.72;4481631;32;35231;-93
2022/01/12 00:56:06;;;;;;;;;;;;;;;5.60;32.93;100606.47;4480014;32;33777;-92
2022/01/12 00:58:34;;;;;;;;;;;;;;;5.40;33.16;100605.38;4481808;32;33615;-93
2022/01/12 01:01:02;;;;;;;;;;;;;;;5.75;32.71;100607.31;4481428;32;33870;-88
2022/01/12 01:03:30;;;;;;;;;;;;;;;5.70;32.75;100608.78;4481127;32;34342;-92
2022/01/12 01:05:59;;;;;;;;;;;;;;;5.58;32.73;100603.84;4481092;32;34683;-93
2022/01/12 01:08:26;;;;;;;;;;;;;;;5.54;32.90;100608.72;4480951;32;33697;-92
2022/01/12 01:10:56;;;;;;;;;;;;;;;5.96;32.45;100601.62;4480814;32;34004;-89
2022/01/12 01:13:33;;;;;;;;;;;;;;;5.78;32.92;100599.78;4480450;32;34113;-90
2022/01/12 01:16:24;;;;;;;;;;;;;;;5.84;32.67;100602.69;4480759;32;33964;-91
2022/01/12 01:27:15;;;;;;;;;;;;;;;5.80;32.94;100605.91;4481583;32;33854;-91
2022/01/12 01:29:42;;;;;;;;;;;;;;;5.81;32.83;100606.78;4483115;32;33689;-87
2022/01/12 01:32:12;;;;;;;;;;;;;;;5.43;33.21;100608.12;4482989;32;34509;-92
2022/01/12 01:34:45;;;;;;;;;;;;;;;5.55;33.36;100615.63;4482321;32;34170;-90
2022/01/12 01:37:14;;;;;;;;;;;;;;;5.08;34.25;100607.00;4484247;32;33811;-92
2022/01/12 01:39:41;;;;;;;;;;;;;;;5.49;33.87;100608.47;4481012;32;32830;-86
2022/01/12 01:42:20;;;;;;;;;;;;;;;5.57;33.65;100611.47;4474850;32;33799;-90
2022/01/12 01:55:34;;;;;;;;;;;;;;;5.84;33.29;100618.12;4483165;32;35208;-84
2022/01/12 01:58:02;;;;;;;;;;;;;;;5.90;33.15;100624.41;4482602;32;33607;-89
2022/01/12 02:00:29;;;;;;;;;;;;;;;5.74;33.03;100623.56;4482597;32;33119;-84
2022/01/12 02:03:00;;;;;;;;;;;;;;;5.33;33.91;100628.97;4483600;32;35065;-87
2022/01/12 02:05:31;;;;;;;;;;;;;;;5.67;33.43;100626.59;4483433;32;34216;-89
2022/01/12 02:07:59;;;;;;;;;;;;;;;5.76;33.45;100624.56;4479536;32;34317;-91
2022/01/12 02:10:27;;;;;;;;;;;;;;;5.14;34.39;100621.88;4481987;32;33881;-86
2022/01/12 02:12:54;;;;;;;;;;;;;;;5.78;33.61;100622.06;4483120;32;34363;-90
2022/01/12 02:15:23;;;;;;;;;;;;;;;4.79;35.10;100631.00;4483067;32;34491;-91
2022/01/12 02:18:20;;;;;;;;;;;;;;;5.22;34.50;100623.19;4482360;32;34119;-85
2022/01/12 02:39:47;;;;;;;;;;;;;;;5.03;35.52;100630.66;4483104;32;35685;-90
2022/01/12 02:40:06;;;;;;;;;;;;;;;4.38;36.54;100631.97;4482800;32;34480;-88
2022/01/12 02:42:34;;;;;;;;;;;;;;;4.22;37.24;100638.66;4481929;32;31282;-92
2022/01/12 02:53:42;;;;;;;;;;;;;;;5.35;34.80;100628.25;4460838;31;34493;-92
2022/01/12 02:56:11;;;;;;;;;;;;;;;5.43;34.32;100630.37;4482442;32;35120;-90
2022/01/12 02:58:39;;;;;;;;;;;;;;;5.41;34.71;100632.84;4477132;32;34903;-92
2022/01/12 03:03:54;;;;;;;;;;;;;;;4.70;36.40;100639.81;4482732;32;33444;-91
2022/01/12 03:06:28;;;;;;;;;;;;;;;5.19;35.08;100640.13;4482652;32;35163;-90
2022/01/12 03:08:56;;;;;;;;;;;;;;;5.27;34.97;100632.09;4481684;32;34143;-91
2022/01/12 03:11:24;;;;;;;;;;;;;;;5.31;34.08;100639.19;4481241;32;34243;-92
2022/01/12 03:13:52;;;;;;;;;;;;;;;5.46;33.71;100639.16;4483201;32;34754;-91
2022/01/12 03:16:20;;;;;;;;;;;;;;;5.39;33.97;100641.31;4483060;32;35066;-91
2022/01/12 03:18:48;;;;;;;;;;;;;;;5.27;34.13;100639.81;4482683;32;33540;-92
2022/01/12 03:21:16;;;;;;;;;;;;;;;5.45;33.77;100642.50;4474549;32;34488;-91
2022/01/12 03:23:44;;;;;;;;;;;;;;;5.23;34.27;100648.13;4481764;32;34447;-91
2022/01/12 03:26:11;;;;;;;;;;;;;;;5.28;34.01;100639.00;4481767;32;34274;-92
2022/01/12 03:28:39;;;;;;;;;;;;;;;5.02;34.59;100652.03;4482332;32;34321;-90
2022/01/12 03:31:18;;;;;;;;;;;;;;;4.68;35.22;100662.88;4481317;32;34041;-91
2022/01/12 03:36:28;;;;;;;;;;;;;;;5.25;34.02;100651.66;4481185;32;34981;-90
2022/01/12 03:38:57;;;;;;;;;;;;;;;5.54;33.56;100649.88;4482560;32;35214;-91
2022/01/12 03:41:26;;;;;;;;;;;;;;;5.28;33.78;100650.97;4481859;32;33985;-91
2022/01/12 03:43:54;;;;;;;;;;;;;;;5.29;33.99;100650.16;4481224;32;33934;-91
2022/01/12 03:46:32;;;;;;;;;;;;;;;5.12;34.06;100647.53;4468574;32;33645;-86
2022/01/12 03:49:01;;;;;;;;;;;;;;;4.80;34.78;100639.59;4482711;32;35066;-91
2022/01/12 03:51:28;;;;;;;;;;;;;;;5.15;34.28;100639.06;4482089;32;34037;-91
2022/01/12 03:53:55;;;;;;;;;;;;;;;5.25;33.83;100638.81;4482112;32;33899;-91
2022/01/12 03:56:23;;;;;;;;;;;;;;;5.33;33.63;100632.41;4481746;32;33784;-89
2022/01/12 03:58:50;;;;;;;;;;;;;;;5.10;34.03;100643.94;4482074;32;33974;-91
2022/01/12 04:01:17;;;;;;;;;;;;;;;5.18;33.83;100648.66;4482062;32;34001;-89
2022/01/12 04:03:57;;;;;;;;;;;;;;;5.23;33.60;100654.97;4481367;32;33881;-90
2022/01/12 04:09:22;;;;;;;;;;;;;;;5.10;33.68;100658.50;4481859;32;34282;-91
2022/01/12 04:11:49;;;;;;;;;;;;;;;5.01;33.91;100660.53;4482227;32;35272;-91
2022/01/12 04:14:16;;;;;;;;;;;;;;;4.93;33.96;100654.06;4481947;32;33412;-91
2022/01/12 04:16:45;;;;;;;;;;;;;;;4.82;34.41;100658.56;4482939;32;34274;-91
2022/01/12 04:19:12;;;;;;;;;;;;;;;4.96;34.20;100649.09;4481343;32;34127;-91
2022/01/12 04:21:47;;;;;;;;;;;;;;;4.37;34.53;100653.31;4482884;32;34789;-91
2022/01/12 04:24:14;;;;;;;;;;;;;;;3.78;36.15;100655.59;4481846;32;33518;-91
2022/01/12 04:26:42;;;;;;;;;;;;;;;4.18;35.38;100649.53;4475374;32;34036;-88
2022/01/12 04:29:09;;;;;;;;;;;;;;;4.26;35.48;100656.91;4481798;32;33914;-88
2022/01/12 04:31:37;;;;;;;;;;;;;;;4.15;35.40;100660.47;4481440;32;34265;-84
2022/01/12 04:34:04;;;;;;;;;;;;;;;4.30;35.33;100657.97;4478720;32;31747;-90
2022/01/12 04:36:32;;;;;;;;;;;;;;;4.49;34.98;100652.28;4465420;32;33714;-90
2022/01/12 04:39:00;;;;;;;;;;;;;;;4.47;35.22;100659.00;4479899;32;35241;-90
2022/01/12 04:41:27;;;;;;;;;;;;;;;4.47;35.29;100662.47;4480981;32;35409;-90
2022/01/12 04:43:56;;;;;;;;;;;;;;;4.53;35.24;100659.38;4481532;32;34441;-91
2022/01/12 04:46:37;;;;;;;;;;;;;;;4.40;35.33;100665.47;4480858;32;34203;-90
2022/01/12 04:49:23;;;;;;;;;;;;;;;4.55;34.92;100665.50;4472852;32;34026;-88
2022/01/12 04:51:58;;;;;;;;;;;;;;;4.45;35.05;100669.19;4476159;32;34692;-89
2022/01/12 04:54:26;;;;;;;;;;;;;;;4.39;35.19;100667.16;4482787;32;33159;-88
2022/01/12 04:56:53;;;;;;;;;;;;;;;4.54;35.18;100668.84;4479103;32;34232;-90
2022/01/12 04:59:21;;;;;;;;;;;;;;;4.41;35.33;100671.47;4480961;32;33996;-91
2022/01/12 05:01:56;;;;;;;;;;;;;;;4.14;35.44;100671.56;4483300;32;35243;-90
2022/01/12 05:07:43;;;;;;;;;;;;;;;3.45;37.34;100673.94;4483696;32;34221;-90
2022/01/12 05:13:01;;;;;;;;;;;;;;;3.98;36.01;100679.97;4419409;32;34114;-90
2022/01/12 05:15:33;;;;;;;;;;;;;;;4.27;35.71;100683.44;4471373;31;33525;-92
2022/01/12 05:18:01;;;;;;;;;;;;;;;3.41;37.38;100693.38;4481864;32;34212;-90
2022/01/12 05:20:28;;;;;;;;;;;;;;;3.18;39.66;100691.84;4482772;32;34108;-91
2022/01/12 05:22:56;;;;;;;;;;;;;;;3.62;38.72;100684.50;4483173;32;34239;-90
2022/01/12 05:25:24;;;;;;;;;;;;;;;3.47;39.22;100692.88;4483012;32;34289;-91
2022/01/12 05:27:53;;;;;;;;;;;;;;;3.64;39.29;100689.75;4482306;32;35107;-91
2022/01/12 05:30:21;;;;;;;;;;;;;;;3.90;38.26;100689.75;4482242;32;34859;-91
2022/01/12 05:32:49;;;;;;;;;;;;;;;3.46;38.01;100692.00;4483817;32;34353;-91
2022/01/12 05:35:20;;;;;;;;;;;;;;;3.63;37.96;100691.41;4483788;32;33004;-90
2022/01/12 05:37:47;;;;;;;;;;;;;;;4.19;36.57;100694.94;4482828;31;34144;-91
2022/01/12 05:40:16;;;;;;;;;;;;;;;4.12;37.15;100693.66;4476948;32;33914;-90
2022/01/12 05:42:44;;;;;;;;;;;;;;;4.31;36.68;100688.88;4482468;32;34476;-90
2022/01/12 05:45:11;;;;;;;;;;;;;;;4.46;35.61;100694.06;4483300;32;33488;-88
2022/01/12 05:49:34;;;;;;;;;;;;;;;4.34;35.94;100688.19;4482186;32;33026;-91
2022/01/12 05:50:28;;;;;;;;;;;;;;;4.52;35.41;100689.31;4483322;32;33839;-88
2022/01/12 05:52:55;;;;;;;;;;;;;;;4.36;35.40;100690.06;4482700;32;35210;-92
2022/01/12 05:55:23;;;;;;;;;;;;;;;4.48;35.26;100692.50;4483907;32;33651;-91
2022/01/12 05:57:51;;;;;;;;;;;;;;;4.57;35.02;100694.72;4482446;32;34309;-88
2022/01/12 06:00:19;;;;;;;;;;;;;;;4.53;35.10;100698.78;4482036;32;33725;-92
2022/01/12 06:02:48;;;;;;;;;;;;;;;4.53;35.05;100705.59;4483372;32;34289;-92
2022/01/12 06:05:18;;;;;;;;;;;;;;;4.53;34.94;100706.50;4474125;32;33729;-92
2022/01/12 06:07:46;;;;;;;;;;;;;;;4.27;35.00;100704.87;4472286;32;34807;-92
2022/01/12 06:10:14;;;;;;;;;;;;;;;4.52;34.43;100706.41;4481876;32;34418;-91
2022/01/12 06:12:41;;;;;;;;;;;;;;;4.37;34.86;100712.38;4483057;32;34299;-87
2022/01/12 06:15:09;;;;;;;;;;;;;;;4.29;34.96;100720.41;4483550;32;33128;-86
2022/01/12 06:17:37;;;;;;;;;;;;;;;4.28;35.15;100718.59;4482750;32;33896;-86
2022/01/12 06:20:04;;;;;;;;;;;;;;;4.50;34.82;100725.97;4483346;32;34190;-89
2022/01/12 06:22:32;;;;;;;;;;;;;;;4.68;34.67;100734.81;4483290;32;34082;-91
2022/01/12 06:25:00;;;;;;;;;;;;;;;4.75;34.26;100733.50;4483129;32;33400;-89
2022/01/12 06:27:29;;;;;;;;;;;;;;;4.69;34.38;100734.00;4482750;32;34105;-90
2022/01/12 06:31:10;;;;;;;;;;;;;;;4.79;34.19;100738.91;4481895;32;33933;-90
2022/01/12 06:33:02;;;;;;;;;;;;;;;4.52;34.71;100732.09;4482951;32;34603;-90
2022/01/12 06:35:29;;;;;;;;;;;;;;;4.44;34.59;100739.31;4483239;32;33566;-90
2022/01/12 06:37:57;;;;;;;;;;;;;;;4.46;34.42;100742.84;4483207;32;34658;-91
2022/01/12 06:40:25;;;;;;;;;;;;;;;4.13;35.21;100746.78;4483714;32;33996;-92
2022/01/12 06:42:52;;;;;;;;;;;;;;;4.45;34.70;100745.34;4483289;32;34135;-86
2022/01/12 06:45:19;;;;;;;;;;;;;;;4.49;34.43;100749.88;4483297;32;34248;-91
2022/01/12 06:47:47;;;;;;;;;;;;;;;4.22;34.77;100749.91;4483348;32;35060;-87
2022/01/12 06:50:14;;;;;;;;;;;;;;;4.39;34.79;100754.44;4482428;32;35169;-91
2022/01/12 06:52:41;;;;;;;;;;;;;;;4.57;34.37;100759.81;4482336;32;34447;-86
2022/01/12 06:55:09;;;;;;;;;;;;;;;4.38;34.86;100755.22;4483304;32;33337;-91
2022/01/12 06:57:36;;;;;;;;;;;;;;;4.38;34.82;100749.19;4483452;32;34641;-90
2022/01/12 07:00:04;;;;;;;;;;;;;;;4.19;35.47;100756.53;4482627;32;35162;-85
2022/01/12 07:02:32;;;;;;;;;;;;;;;4.07;36.48;100756.66;4481930;32;33497;-85
2022/01/12 07:05:00;;;;;;;;;;;;;;;2.00;41.00;100770.72;4482512;32;34352;-88
2022/01/12 07:07:27;;;;;;;;;;;;;;;2.77;40.60;100774.50;4482808;32;34003;-89
2022/01/12 07:09:55;;;;;;;;;;;;;;;3.41;38.94;100771.19;4482942;32;35307;-89
2022/01/12 07:12:25;;;;;;;;;;;;;;;2.63;41.18;100768.41;4483253;32;35238;-91
2022/01/12 07:14:52;;;;;;;;;;;;;;;1.26;44.23;100778.84;4482394;32;33487;-92
2022/01/12 07:17:20;;;;;;;;;;;;;;;1.80;43.22;100782.06;4483341;32;33899;-91
2022/01/12 07:19:47;;;;;;;;;;;;;;;2.45;41.90;100787.59;4483020;32;34438;-92
2022/01/12 07:22:15;;;;;;;;;;;;;;;1.83;43.33;100792.50;4482687;32;34166;-91
2022/01/12 07:24:43;;;;;;;;;;;;;;;2.05;42.98;100796.66;4482312;32;33033;-91
2022/01/12 07:27:10;;;;;;;;;;;;;;;1.49;44.43;100804.47;4483074;32;34472;-91
2022/01/12 07:29:37;;;;;;;;;;;;;;;1.25;44.74;100808.62;4482475;32;33991;-91
2022/01/12 07:32:05;;;;;;;;;;;;;;;0.71;45.62;100808.69;4481461;32;34564;-90
2022/01/12 07:34:34;;;;;;;;;;;;;;;2.18;43.01;100801.84;4482225;32;33631;-88
2022/01/12 07:37:01;;;;;;;;;;;;;;;1.52;43.41;100814.03;4482274;31;32591;-91
2022/01/12 07:39:28;;;;;;;;;;;;;;;2.21;42.60;100814.88;4482868;32;34480;-85
2022/01/12 07:41:56;;;;;;;;;;;;;;;2.72;41.35;100811.69;4483103;32;34526;-92
2022/01/12 07:44:24;;;;;;;;;;;;;;;2.02;42.43;100806.66;4481232;32;34017;-92
2022/01/12 07:46:52;;;;;;;;;;;;;;;0.77;45.90;100816.84;4483429;32;34724;-91
2022/01/12 07:49:20;;;;;;;;;;;;;;;1.68;44.03;100819.50;4482698;32;34180;-91
2022/01/12 07:51:47;;;;;;;;;;;;;;;1.92;43.23;100823.87;4482672;32;34726;-90
2022/01/12 07:54:15;;;;;;;;;;;;;;;2.21;42.46;100829.34;4481750;32;33358;-90
2022/01/12 07:56:43;;;;;;;;;;;;;;;1.40;44.47;100830.22;4483268;32;33849;-90
2022/01/12 07:59:10;;;;;;;;;;;;;;;0.99;45.59;100833.84;4482670;32;34259;-92
2022/01/12 08:01:38;;;;;;;;;;;;;;;1.25;45.21;100839.28;4481537;32;35427;-86
2022/01/12 08:04:05;;;;;;;;;;;;;;;0.76;45.46;100835.50;4472961;32;33666;-87
2022/01/12 08:06:32;;;;;;;;;;;;;;;1.62;44.11;100842.06;4482359;32;34192;-92
2022/01/12 08:09:00;;;;;;;;;;;;;;;1.50;44.26;100841.13;4482387;32;34492;-85
2022/01/12 08:11:29;;;;;;;;;;;;;;;1.75;43.47;100831.97;4482179;32;34298;-91
2022/01/12 08:13:56;;;;;;;;;;;;;;;1.65;43.24;100843.16;4481836;32;34320;-85
2022/01/12 08:16:23;;;;;;;;;;;;;;;0.99;45.01;100841.50;4481911;32;35087;-91
2022/01/12 08:18:50;;;;;;;;;;;;;;;2.24;42.24;100840.69;4479988;32;34265;-92
2022/01/12 08:21:18;;;;;;;;;;;;;;;1.47;44.46;100839.22;4481460;32;34723;-92
2022/01/12 08:23:45;;;;;;;;;;;;;;;1.91;42.92;100841.66;4482403;32;33448;-90
2022/01/12 08:26:13;;;;;;;;;;;;;;;1.28;44.51;100847.16;4482735;32;34862;-88
2022/01/12 08:28:40;;;;;;;;;;;;;;;1.48;44.29;100850.34;4480980;32;35047;-86
2022/01/12 08:31:07;;;;;;;;;;;;;;;2.23;42.77;100850.81;4468650;32;35088;-90
2022/01/12 08:33:34;;;;;;;;;;;;;;;2.16;42.88;100854.59;4480515;32;34517;-91
2022/01/12 08:36:01;;;;;;;;;;;;;;;1.50;44.21;100866.69;4484274;31;34292;-90
2022/01/12 08:38:29;;;;;;;;;;;;;;;1.11;45.47;100871.44;4484161;32;34117;-88
2022/01/12 08:40:56;;;;;;;;;;;;;;;1.19;45.26;100869.47;4484368;32;34221;-90
2022/01/12 08:43:23;;;;;;;;;;;;;;;1.70;43.80;100881.84;4484243;32;34402;-86
2022/01/12 08:45:53;;;;;;;;;;;;;;;1.53;44.60;100877.16;4471449;32;34093;-86
2022/01/12 08:48:21;;;;;;;;;;;;;;;0.98;45.68;100868.69;4472072;32;33832;-90
2022/01/12 08:50:48;;;;;;;;;;;;;;;1.34;44.94;100869.75;4484228;32;34942;-91
2022/01/12 08:53:16;;;;;;;;;;;;;;;1.03;45.44;100871.63;4484367;32;33876;-85
2022/01/12 08:55:44;;;;;;;;;;;;;;;2.00;43.71;100867.91;4480735;32;33786;-91
2022/01/12 08:58:14;;;;;;;;;;;;;;;1.55;44.25;100862.81;4476931;32;33884;-90
2022/01/12 09:00:41;;;;;;;;;;;;;;;2.40;42.29;100861.50;4468488;32;34856;-85
2022/01/12 09:03:08;;;;;;;;;;;;;;;1.55;44.37;100865.38;4468539;32;33416;-85
2022/01/12 09:05:36;;;;;;;;;;;;;;;2.44;42.63;100867.72;4468441;32;35045;-86
2022/01/12 09:08:03;;;;;;;;;;;;;;;1.11;45.56;100865.44;4479088;32;34686;-86
2022/01/12 09:10:31;;;;;;;;;;;;;;;2.89;41.99;100864.09;4484905;32;34171;-83
2022/01/12 09:12:58;;;;;;;;;;;;;;;2.31;42.50;100855.72;4485857;32;34804;-87
2022/01/12 09:15:26;;;;;;;;;;;;;;;2.47;42.98;100850.03;4481957;32;34335;-85
2022/01/12 09:17:54;;;;;;;;;;;;;;;2.55;42.77;100855.69;4475150;32;35181;-84
2022/01/12 09:20:21;;;;;;;;;;;;;;;2.83;41.94;100849.19;4484057;32;34776;-85
2022/01/12 09:22:48;;;;;;;;;;;;;;;1.72;44.04;100861.53;4467111;32;33624;-85
2022/01/12 09:25:16;;;;;;;;;;;;;;;2.43;43.19;100859.16;4467132;32;33599;-85
2022/01/12 09:27:43;;;;;;;;;;;;;;;3.06;42.40;100855.03;4470806;32;33640;-86
2022/01/12 09:30:11;;;;;;;;;;;;;;;2.95;42.09;100844.03;4474061;32;34450;-84
2022/01/12 09:32:40;;;;;;;;;;;;;;;3.36;40.88;100856.25;4483714;32;33742;-85
2022/01/12 09:35:07;;;;;;;;;;;;;;;2.53;42.41;100857.25;4484174;32;34103;-86
2022/01/12 09:37:34;;;;;;;;;;;;;;;2.85;41.58;100859.53;4482307;31;35282;-86
2022/01/12 09:40:02;;;;;;;;;;;;;;;2.96;41.41;100852.62;4483233;32;34152;-86
2022/01/12 09:42:29;;;;;;;;;;;;;;;3.24;41.11;100853.72;4483940;32;33435;-87
2022/01/12 09:44:56;;;;;;;;;;;;;;;2.91;42.26;100852.28;4483056;32;34349;-87
2022/01/12 09:47:24;;;;;;;;;;;;;;;3.05;42.65;100871.19;4482573;32;34272;-89
2022/01/12 09:49:51;;;;;;;;;;;;;;;3.57;41.57;100857.72;4469672;32;33053;-90
2022/01/12 09:52:18;;;;;;;;;;;;;;;3.11;42.44;100861.38;4480881;32;34602;-91
2022/01/12 09:54:46;;;;;;;;;;;;;;;3.06;42.31;100857.59;4482686;32;34547;-87
2022/01/12 09:57:13;;;;;;;;;;;;;;;3.19;42.20;100869.59;4484089;32;33942;-89
2022/01/12 09:59:41;;;;;;;;;;;;;;;3.25;42.47;100870.87;4481166;32;35021;-91
2022/01/12 10:02:19;;;;;;;;;;;;;;;4.15;40.74;100860.69;4473147;32;33700;-88
2022/01/12 10:04:46;;;;;;;;;;;;;;;3.55;41.68;100871.22;4479729;32;34017;-87
2022/01/12 10:07:14;;;;;;;;;;;;;;;2.68;48.64;100881.37;4472277;32;34143;-87
2022/01/12 10:09:45;;;;;;;;;;;;;;;3.10;48.30;100880.06;4466881;32;33896;-88
2022/01/12 10:12:14;;;;;;;;;;;;;;;3.95;44.10;100866.19;4468037;32;33369;-86
2022/01/12 10:14:45;;;;;;;;;;;;;;;4.36;40.09;100859.53;4468289;32;33326;-86
2022/01/12 10:17:12;;;;;;;;;;;;;;;3.39;42.57;100859.91;4468233;32;35391;-87
2022/01/12 10:19:40;;;;;;;;;;;;;;;3.52;42.44;100860.75;4479875;32;35094;-87
2022/01/12 10:22:10;;;;;;;;;;;;;;;4.63;40.42;100859.50;4483800;32;33160;-88
2022/01/12 10:24:38;;;;;;;;;;;;;;;5.09;38.76;100863.25;4479347;32;33910;-86
2022/01/12 10:27:13;;;;;;;;;;;;;;;3.52;41.69;100848.81;4469426;32;34415;-87
2022/01/12 10:29:40;;;;;;;;;;;;;;;3.72;41.19;100859.53;4483552;32;34154;-89
2022/01/12 10:32:08;;;;;;;;;;;;;;;3.68;41.57;100861.00;4469596;32;33512;-87
2022/01/12 10:34:38;;;;;;;;;;;;;;;4.58;39.84;100858.31;4483711;32;34328;-88
2022/01/12 10:37:09;;;;;;;;;;;;;;;4.21;40.61;100862.78;4483665;31;34476;-89
2022/01/12 10:39:41;;;;;;;;;;;;;;;4.99;39.42;100857.47;4476259;32;34484;-90
2022/01/12 10:42:10;;;;;;;;;;;;;;;4.39;39.58;100851.09;4469337;32;33582;-88
2022/01/12 10:44:41;;;;;;;;;;;;;;;4.13;39.17;100854.59;4479252;32;34266;-89
2022/01/12 10:47:21;;;;;;;;;;;;;;;4.25;39.22;100855.38;4479797;32;34312;-88
2022/01/12 10:49:54;;;;;;;;;;;;;;;3.70;39.47;100851.72;4473110;32;34483;-89
2022/01/12 10:52:28;;;;;;;;;;;;;;;3.00;41.65;100854.63;4480101;32;32070;-87
2022/01/12 10:54:57;;;;;;;;;;;;;;;3.70;40.79;100849.16;4480310;32;34132;-88
2022/01/12 10:57:26;;;;;;;;;;;;;;;3.09;41.54;100855.25;4470297;32;34093;-90
2022/01/12 11:00:07;;;;;;;;;;;;;;;2.92;42.51;100854.97;4469801;32;34404;-91
2022/01/12 11:02:36;;;;;;;;;;;;;;;4.12;39.96;100852.78;4477624;32;33444;-90
2022/01/12 11:05:04;;;;;;;;;;;;;;;5.36;37.65;100843.47;4481841;32;35120;-89
2022/01/12 11:07:31;;;;;;;;;;;;;;;5.68;36.80;100841.94;4479434;32;35028;-88
2022/01/12 11:09:59;;;;;;;;;;;;;;;5.27;36.89;100842.94;4481134;32;33997;-88
2022/01/12 11:12:27;;;;;;;;;;;;;;;5.29;36.91;100841.34;4481403;32;33271;-87
2022/01/12 11:14:54;;;;;;;;;;;;;;;4.43;38.64;100840.25;4482239;32;34427;-90
2022/01/12 11:17:21;;;;;;;;;;;;;;;5.05;36.93;100839.84;4481023;32;34399;-87
2022/01/12 11:20:04;;;;;;;;;;;;;;;4.72;37.47;100839.53;4479899;32;34452;-89
2022/01/12 11:22:35;;;;;;;;;;;;;;;5.51;35.98;100846.09;4482469;32;34089;-89
2022/01/12 11:25:02;;;;;;;;;;;;;;;3.56;39.13;100852.47;4481090;32;33922;-86
2022/01/12 11:27:30;;;;;;;;;;;;;;;3.70;38.79;100848.28;4480215;32;35169;-86
2022/01/12 11:29:59;;;;;;;;;;;;;;;4.44;37.76;100847.19;4482297;32;35056;-87
2022/01/12 11:32:26;;;;;;;;;;;;;;;4.57;37.42;100834.31;4481098;32;33588;-88
2022/01/12 11:35:03;;;;;;;;;;;;;;;5.39;36.06;100839.34;4480739;32;33880;-89
2022/01/12 11:37:45;;;;;;;;;;;;;;;4.42;38.02;100847.84;4480580;32;34855;-87
2022/01/12 11:40:12;;;;;;;;;;;;;;;4.16;38.45;100844.50;4481947;32;34425;-88
2022/01/12 11:42:40;;;;;;;;;;;;;;;4.20;38.85;100840.44;4481957;32;34414;-88
2022/01/12 11:45:18;;;;;;;;;;;;;;;4.80;37.83;100838.31;4481178;32;33728;-88
2022/01/12 11:47:45;;;;;;;;;;;;;;;4.37;38.68;100840.75;4471879;32;34263;-86
2022/01/12 11:50:12;;;;;;;;;;;;;;;4.96;37.75;100836.69;4478328;32;34137;-86
2022/01/12 11:52:39;;;;;;;;;;;;;;;4.56;38.14;100826.53;4475452;32;33329;-87
2022/01/12 11:55:07;;;;;;;;;;;;;;;4.87;37.80;100832.78;4480631;32;33999;-87
2022/01/12 11:57:35;;;;;;;;;;;;;;;5.55;36.35;100827.47;4482070;32;34275;-89
2022/01/12 12:00:10;;;;;;;;;;;;;;;5.81;36.30;100813.56;4481963;32;35654;-87
2022/01/12 12:02:44;;;;;;;;;;;;;;;6.08;35.64;100815.97;4474085;32;33680;-88
2022/01/12 12:05:13;;;;;;;;;;;;;;;5.99;36.29;100815.47;4465119;32;34767;-86
2022/01/12 12:07:49;;;;;;;;;;;;;;;5.23;37.60;100829.81;4478193;32;34805;-87
2022/01/12 12:10:21;;;;;;;;;;;;;;;5.48;37.26;100830.47;4481528;32;34601;-85
2022/01/12 12:12:52;;;;;;;;;;;;;;;6.22;35.47;100812.50;4479783;32;33605;-82
2022/01/12 12:15:21;;;;;;;;;;;;;;;5.52;36.83;100818.69;4467340;32;33678;-84
2022/01/12 12:17:48;;;;;;;;;;;;;;;5.68;36.72;100825.59;4465483;32;35274;-84
2022/01/12 12:20:16;;;;;;;;;;;;;;;6.21;35.40;100812.41;4480360;32;34277;-84
2022/01/12 12:22:45;;;;;;;;;;;;;;;5.53;36.51;100828.16;4480528;32;34548;-87
2022/01/12 12:25:19;;;;;;;;;;;;;;;5.44;37.03;100819.91;4472096;32;34215;-84
2022/01/12 12:27:51;;;;;;;;;;;;;;;5.30;36.64;100820.00;4465941;32;34950;-84
2022/01/12 12:30:18;;;;;;;;;;;;;;;4.94;37.80;100823.78;4471415;32;35171;-84
2022/01/12 12:32:47;;;;;;;;;;;;;;;4.18;39.16;100821.50;4464495;32;33518;-86
2022/01/12 12:35:18;;;;;;;;;;;;;;;5.67;37.07;100824.72;4464539;32;35356;-86
2022/01/12 12:37:46;;;;;;;;;;;;;;;5.56;36.27;100828.34;4465962;32;33897;-86
2022/01/12 12:40:15;;;;;;;;;;;;;;;6.23;35.58;100821.13;4474003;32;34633;-83
2022/01/12 12:42:42;;;;;;;;;;;;;;;4.60;37.93;100833.63;4479813;32;33722;-87
2022/01/12 12:45:09;;;;;;;;;;;;;;;5.29;37.21;100838.75;4466427;32;34088;-88
2022/01/12 12:47:37;;;;;;;;;;;;;;;5.90;35.96;100828.62;4474908;32;34447;-89
2022/01/12 12:50:06;;;;;;;;;;;;;;;5.52;36.76;100836.69;4480985;32;34379;-88
2022/01/12 12:52:34;;;;;;;;;;;;;;;6.11;35.44;100818.75;4479929;32;33709;-88
2022/01/12 12:55:06;;;;;;;;;;;;;;;4.31;38.55;100817.25;4481789;32;34971;-86
2022/01/12 12:57:33;;;;;;;;;;;;;;;4.06;39.44;100822.50;4480502;32;33990;-89
2022/01/12 13:00:03;;;;;;;;;;;;;;;3.70;39.99;100823.50;4477323;32;99234;-89
2022/01/12 13:02:50;;;;;;;;;;;;;;;5.18;37.63;100820.91;4481615;32;33445;-88
2022/01/12 13:05:21;;;;;;;;;;;;;;;5.81;35.98;100807.53;4481218;32;33742;-90
2022/01/12 13:07:49;;;;;;;;;;;;;;;4.91;36.86;100820.13;4479994;32;35190;-87
2022/01/12 13:10:18;;;;;;;;;;;;;;;5.53;36.27;100815.28;4472329;32;33942;-86
2022/01/12 13:13:01;;;;;;;;;;;;;;;5.65;35.70;100820.31;4466228;32;33053;-87
2022/01/12 13:15:29;;;;;;;;;;;;;;;5.95;35.11;100810.94;4478142;32;34945;-87
2022/01/12 13:18:00;;;;;;;;;;;;;;;6.68;34.32;100817.63;4482207;32;34925;-87
2022/01/12 13:23:20;;;;;;;;;;;;;;;5.30;36.75;100821.66;4473226;32;33289;-88
2022/01/12 13:25:48;;;;;;;;;;;;;;;5.77;36.06;100814.19;4477538;32;34008;-88
2022/01/12 13:28:16;;;;;;;;;;;;;;;6.33;35.04;100810.53;4483179;32;33666;-87
2022/01/12 13:30:52;;;;;;;;;;;;;;;6.32;34.69;100819.94;4482256;32;32336;-87
2022/01/12 13:33:30;;;;;;;;;;;;;;;7.04;33.71;100810.09;4474563;32;34098;-87
2022/01/12 13:35:58;;;;;;;;;;;;;;;6.30;35.26;100815.50;4477132;31;32637;-87
2022/01/12 13:38:26;;;;;;;;;;;;;;;5.54;36.69;100822.25;4468012;32;35659;-86
2022/01/12 13:40:55;;;;;;;;;;;;;;;5.58;36.55;100837.94;4473844;32;35685;-88
2022/01/12 13:43:23;;;;;;;;;;;;;;;6.15;35.79;100819.81;4482595;32;34810;-87
2022/01/12 13:45:59;;;;;;;;;;;;;;;5.74;36.42;100823.41;4482986;32;34161;-89
2022/01/12 13:49:07;;;;;;;;;;;;;;;5.19;37.27;100832.97;4483310;32;35029;-87
2022/01/12 13:51:38;;;;;;;;;;;;;;;5.81;36.35;100823.84;4483665;32;35300;-87
2022/01/12 13:54:12;;;;;;;;;;;;;;;5.99;35.85;100818.03;4481351;32;33806;-86
2022/01/12 13:57:00;;;;;;;;;;;;;;;4.78;37.70;100816.78;4475346;32;34363;-86
2022/01/12 13:59:29;;;;;;;;;;;;;;;5.52;36.73;100823.81;4479703;32;34272;-88
2022/01/12 14:01:57;;;;;;;;;;;;;;;6.06;35.38;100815.91;4479829;32;34620;-87
2022/01/12 14:04:25;;;;;;;;;;;;;;;4.68;37.91;100827.28;4480770;32;33285;-88
2022/01/12 14:06:53;;;;;;;;;;;;;;;6.04;35.90;100816.59;4480638;32;34034;-90